sensor_id;sensor_type;location;lat;lon;timestamp;P1;durP1;ratioP1;P2;durP2;ratioP2
31132;SDS011;17779;50.942;4.026;2023-05-29T00:00:51;24.48;;;9.57;;
31132;SDS011;17779;50.942;4.026;2023-05-29T00:03:17;22.35;;;9.75;;
31132;SDS011;17779;50.942;4.026;2023-05-29T00:05:43;20.67;;;10.20;;
31132;SDS011;17779;50.942;4.026;2023-05-29T00:08:09;21.40;;;9.88;;
31132;SDS011;17779;50.942;4.026;2023-05-29T00:10:35;22.10;;;9.65;;
31132;SDS011;17779;50.942;4.026;2023-05-29T00:13:02;21.45;;;9.82;;
31132;SDS011;17779;50.942;4.026;2023-05-29T00:15:28;22.42;;;9.40;;
31132;SDS011;17779;50.942;4.026;2023-05-29T00:17:56;23.75;;;9.48;;
31132;SDS011;17779;50.942;4.026;2023-05-29T00:20:22;22.85;;;10.18;;
31132;SDS011;17779;50.942;4.026;2023-05-29T00:22:47;19.58;;;9.25;;
31132;SDS011;17779;50.942;4.026;2023-05-29T00:25:14;19.75;;;9.27;;
31132;SDS011;17779;50.942;4.026;2023-05-29T00:27:41;21.48;;;9.02;;
31132;SDS011;17779;50.942;4.026;2023-05-29T00:30:07;22.23;;;10.13;;
31132;SDS011;17779;50.942;4.026;2023-05-29T00:32:33;23.63;;;9.77;;
31132;SDS011;17779;50.942;4.026;2023-05-29T00:34:59;22.35;;;10.20;;
31132;SDS011;17779;50.942;4.026;2023-05-29T00:37:24;22.35;;;10.20;;
31132;SDS011;17779;50.942;4.026;2023-05-29T00:39:51;22.83;;;10.15;;
31132;SDS011;17779;50.942;4.026;2023-05-29T00:42:17;19.40;;;8.75;;
31132;SDS011;17779;50.942;4.026;2023-05-29T00:44:42;21.20;;;9.25;;
31132;SDS011;17779;50.942;4.026;2023-05-29T00:47:09;21.55;;;8.40;;
31132;SDS011;17779;50.942;4.026;2023-05-29T00:49:35;23.20;;;9.43;;
31132;SDS011;17779;50.942;4.026;2023-05-29T00:52:02;23.45;;;8.93;;
31132;SDS011;17779;50.942;4.026;2023-05-29T00:54:31;19.48;;;8.77;;
31132;SDS011;17779;50.942;4.026;2023-05-29T00:56:57;22.73;;;8.77;;
31132;SDS011;17779;50.942;4.026;2023-05-29T00:59:29;20.10;;;8.98;;
31132;SDS011;17779;50.942;4.026;2023-05-29T01:01:56;18.35;;;9.15;;
31132;SDS011;17779;50.942;4.026;2023-05-29T01:04:26;20.38;;;9.10;;
31132;SDS011;17779;50.942;4.026;2023-05-29T01:06:52;19.88;;;10.43;;
31132;SDS011;17779;50.942;4.026;2023-05-29T01:09:18;19.85;;;9.45;;
31132;SDS011;17779;50.942;4.026;2023-05-29T01:20:27;19.63;;;9.50;;
31132;SDS011;17779;50.942;4.026;2023-05-29T01:26:11;20.92;;;8.20;;
31132;SDS011;17779;50.942;4.026;2023-05-29T01:28:42;15.85;;;8.05;;
31132;SDS011;17779;50.942;4.026;2023-05-29T01:31:12;27.70;;;8.85;;
31132;SDS011;17779;50.942;4.026;2023-05-29T01:33:39;20.98;;;9.35;;
31132;SDS011;17779;50.942;4.026;2023-05-29T01:36:08;19.25;;;8.50;;
31132;SDS011;17779;50.942;4.026;2023-05-29T01:38:34;17.05;;;7.75;;
31132;SDS011;17779;50.942;4.026;2023-05-29T01:43:26;23.02;;;8.48;;
31132;SDS011;17779;50.942;4.026;2023-05-29T01:45:53;18.63;;;8.05;;
31132;SDS011;17779;50.942;4.026;2023-05-29T01:48:18;17.85;;;7.68;;
31132;SDS011;17779;50.942;4.026;2023-05-29T01:50:45;19.05;;;7.70;;
31132;SDS011;17779;50.942;4.026;2023-05-29T01:53:12;20.15;;;7.60;;
31132;SDS011;17779;50.942;4.026;2023-05-29T01:55:38;16.98;;;7.65;;
31132;SDS011;17779;50.942;4.026;2023-05-29T01:58:05;16.65;;;7.50;;
31132;SDS011;17779;50.942;4.026;2023-05-29T02:00:33;22.58;;;7.45;;
31132;SDS011;17779;50.942;4.026;2023-05-29T02:02:59;19.20;;;7.00;;
31132;SDS011;17779;50.942;4.026;2023-05-29T02:05:25;19.20;;;6.38;;
31132;SDS011;17779;50.942;4.026;2023-05-29T02:07:51;21.75;;;7.20;;
31132;SDS011;17779;50.942;4.026;2023-05-29T02:10:17;18.77;;;5.82;;
31132;SDS011;17779;50.942;4.026;2023-05-29T02:12:43;16.42;;;6.43;;
31132;SDS011;17779;50.942;4.026;2023-05-29T02:15:09;15.73;;;5.43;;
31132;SDS011;17779;50.942;4.026;2023-05-29T02:17:35;15.98;;;5.65;;
31132;SDS011;17779;50.942;4.026;2023-05-29T02:20:02;23.45;;;6.25;;
31132;SDS011;17779;50.942;4.026;2023-05-29T02:22:29;22.75;;;5.75;;
31132;SDS011;17779;50.942;4.026;2023-05-29T02:24:55;17.25;;;5.53;;
31132;SDS011;17779;50.942;4.026;2023-05-29T02:27:21;28.25;;;6.00;;
31132;SDS011;17779;50.942;4.026;2023-05-29T02:29:46;17.67;;;5.15;;
31132;SDS011;17779;50.942;4.026;2023-05-29T02:32:12;21.38;;;5.93;;
31132;SDS011;17779;50.942;4.026;2023-05-29T02:34:38;19.90;;;5.50;;
31132;SDS011;17779;50.942;4.026;2023-05-29T02:37:03;15.57;;;5.22;;
31132;SDS011;17779;50.942;4.026;2023-05-29T02:39:30;19.60;;;5.57;;
31132;SDS011;17779;50.942;4.026;2023-05-29T02:41:56;17.50;;;5.25;;
31132;SDS011;17779;50.942;4.026;2023-05-29T02:44:22;20.88;;;5.40;;
31132;SDS011;17779;50.942;4.026;2023-05-29T02:46:48;17.55;;;4.55;;
31132;SDS011;17779;50.942;4.026;2023-05-29T02:49:13;18.02;;;4.80;;
31132;SDS011;17779;50.942;4.026;2023-05-29T02:51:39;20.30;;;4.57;;
31132;SDS011;17779;50.942;4.026;2023-05-29T02:54:05;22.77;;;5.10;;
31132;SDS011;17779;50.942;4.026;2023-05-29T02:56:31;19.13;;;4.38;;
31132;SDS011;17779;50.942;4.026;2023-05-29T02:58:56;16.00;;;4.72;;
31132;SDS011;17779;50.942;4.026;2023-05-29T03:01:25;21.20;;;5.50;;
31132;SDS011;17779;50.942;4.026;2023-05-29T03:03:51;18.65;;;5.15;;
31132;SDS011;17779;50.942;4.026;2023-05-29T03:06:16;21.00;;;5.32;;
31132;SDS011;17779;50.942;4.026;2023-05-29T03:08:42;18.17;;;4.97;;
31132;SDS011;17779;50.942;4.026;2023-05-29T03:11:10;16.58;;;4.72;;
31132;SDS011;17779;50.942;4.026;2023-05-29T03:13:39;20.00;;;4.47;;
31132;SDS011;17779;50.942;4.026;2023-05-29T03:18:33;19.60;;;5.13;;
31132;SDS011;17779;50.942;4.026;2023-05-29T03:21:01;25.73;;;6.55;;
31132;SDS011;17779;50.942;4.026;2023-05-29T03:23:28;20.65;;;5.00;;
31132;SDS011;17779;50.942;4.026;2023-05-29T03:25:54;19.63;;;4.80;;
31132;SDS011;17779;50.942;4.026;2023-05-29T03:28:19;22.23;;;4.47;;
31132;SDS011;17779;50.942;4.026;2023-05-29T03:30:45;19.95;;;5.07;;
31132;SDS011;17779;50.942;4.026;2023-05-29T03:33:12;20.50;;;4.55;;
31132;SDS011;17779;50.942;4.026;2023-05-29T03:35:38;22.42;;;4.70;;
31132;SDS011;17779;50.942;4.026;2023-05-29T03:38:03;17.92;;;4.18;;
31132;SDS011;17779;50.942;4.026;2023-05-29T03:40:29;22.52;;;4.28;;
31132;SDS011;17779;50.942;4.026;2023-05-29T03:42:56;20.27;;;5.10;;
31132;SDS011;17779;50.942;4.026;2023-05-29T03:45:22;22.50;;;4.78;;
31132;SDS011;17779;50.942;4.026;2023-05-29T03:47:48;20.23;;;4.45;;
31132;SDS011;17779;50.942;4.026;2023-05-29T03:50:14;15.00;;;3.92;;
31132;SDS011;17779;50.942;4.026;2023-05-29T03:52:41;18.00;;;4.30;;
31132;SDS011;17779;50.942;4.026;2023-05-29T03:55:08;19.85;;;4.47;;
31132;SDS011;17779;50.942;4.026;2023-05-29T03:57:38;23.63;;;5.18;;
31132;SDS011;17779;50.942;4.026;2023-05-29T04:00:06;18.55;;;4.60;;
31132;SDS011;17779;50.942;4.026;2023-05-29T04:02:40;19.23;;;5.15;;
31132;SDS011;17779;50.942;4.026;2023-05-29T04:05:06;22.15;;;4.25;;
31132;SDS011;17779;50.942;4.026;2023-05-29T04:07:34;19.52;;;5.22;;
31132;SDS011;17779;50.942;4.026;2023-05-29T04:10:02;16.48;;;3.90;;
31132;SDS011;17779;50.942;4.026;2023-05-29T04:12:28;20.85;;;3.80;;
31132;SDS011;17779;50.942;4.026;2023-05-29T04:14:54;18.58;;;3.92;;
31132;SDS011;17779;50.942;4.026;2023-05-29T04:17:19;19.27;;;4.13;;
31132;SDS011;17779;50.942;4.026;2023-05-29T04:19:45;23.13;;;4.47;;
31132;SDS011;17779;50.942;4.026;2023-05-29T04:22:12;24.88;;;4.53;;
31132;SDS011;17779;50.942;4.026;2023-05-29T04:24:38;24.17;;;4.88;;
31132;SDS011;17779;50.942;4.026;2023-05-29T04:27:04;18.98;;;5.25;;
31132;SDS011;17779;50.942;4.026;2023-05-29T04:29:29;24.65;;;5.20;;
31132;SDS011;17779;50.942;4.026;2023-05-29T04:31:55;17.95;;;3.55;;
31132;SDS011;17779;50.942;4.026;2023-05-29T04:34:22;22.00;;;4.35;;
31132;SDS011;17779;50.942;4.026;2023-05-29T04:36:48;29.58;;;5.10;;
31132;SDS011;17779;50.942;4.026;2023-05-29T04:39:13;19.90;;;4.13;;
31132;SDS011;17779;50.942;4.026;2023-05-29T04:41:40;24.10;;;3.95;;
31132;SDS011;17779;50.942;4.026;2023-05-29T04:46:32;24.60;;;4.63;;
31132;SDS011;17779;50.942;4.026;2023-05-29T04:49:00;19.50;;;4.30;;
31132;SDS011;17779;50.942;4.026;2023-05-29T04:51:28;23.92;;;4.35;;
31132;SDS011;17779;50.942;4.026;2023-05-29T04:53:54;18.65;;;4.65;;
31132;SDS011;17779;50.942;4.026;2023-05-29T04:56:21;19.35;;;4.85;;
31132;SDS011;17779;50.942;4.026;2023-05-29T04:58:47;20.90;;;3.92;;
31132;SDS011;17779;50.942;4.026;2023-05-29T05:01:13;24.17;;;4.57;;
31132;SDS011;17779;50.942;4.026;2023-05-29T05:03:43;18.33;;;3.75;;
31132;SDS011;17779;50.942;4.026;2023-05-29T05:06:09;26.05;;;4.20;;
31132;SDS011;17779;50.942;4.026;2023-05-29T05:08:35;28.20;;;4.70;;
31132;SDS011;17779;50.942;4.026;2023-05-29T05:11:01;26.13;;;4.32;;
31132;SDS011;17779;50.942;4.026;2023-05-29T05:13:27;16.20;;;3.83;;
31132;SDS011;17779;50.942;4.026;2023-05-29T05:15:53;16.27;;;3.53;;
31132;SDS011;17779;50.942;4.026;2023-05-29T05:18:19;20.75;;;4.45;;
31132;SDS011;17779;50.942;4.026;2023-05-29T05:20:45;24.98;;;4.00;;
31132;SDS011;17779;50.942;4.026;2023-05-29T05:23:11;22.15;;;4.47;;
31132;SDS011;17779;50.942;4.026;2023-05-29T05:25:36;18.70;;;3.75;;
31132;SDS011;17779;50.942;4.026;2023-05-29T05:28:04;20.73;;;4.15;;
31132;SDS011;17779;50.942;4.026;2023-05-29T05:30:30;19.98;;;3.67;;
31132;SDS011;17779;50.942;4.026;2023-05-29T05:32:56;21.55;;;5.05;;
31132;SDS011;17779;50.942;4.026;2023-05-29T05:35:22;17.45;;;3.75;;
31132;SDS011;17779;50.942;4.026;2023-05-29T05:37:48;18.58;;;4.15;;
31132;SDS011;17779;50.942;4.026;2023-05-29T05:40:14;20.75;;;3.88;;
31132;SDS011;17779;50.942;4.026;2023-05-29T05:42:40;24.10;;;4.50;;
31132;SDS011;17779;50.942;4.026;2023-05-29T05:45:06;27.92;;;4.88;;
31132;SDS011;17779;50.942;4.026;2023-05-29T05:47:32;18.90;;;4.25;;
31132;SDS011;17779;50.942;4.026;2023-05-29T05:49:58;22.80;;;4.40;;
31132;SDS011;17779;50.942;4.026;2023-05-29T05:52:24;15.23;;;3.15;;
31132;SDS011;17779;50.942;4.026;2023-05-29T05:54:55;24.25;;;5.30;;
31132;SDS011;17779;50.942;4.026;2023-05-29T05:57:21;20.98;;;4.00;;
31132;SDS011;17779;50.942;4.026;2023-05-29T05:59:46;23.13;;;4.32;;
31132;SDS011;17779;50.942;4.026;2023-05-29T06:02:12;13.80;;;3.78;;
31132;SDS011;17779;50.942;4.026;2023-05-29T06:04:38;23.15;;;4.47;;
31132;SDS011;17779;50.942;4.026;2023-05-29T06:07:03;15.93;;;3.47;;
31132;SDS011;17779;50.942;4.026;2023-05-29T06:09:29;21.45;;;4.90;;
31132;SDS011;17779;50.942;4.026;2023-05-29T06:11:55;23.55;;;4.20;;
31132;SDS011;17779;50.942;4.026;2023-05-29T06:14:21;18.70;;;4.43;;
31132;SDS011;17779;50.942;4.026;2023-05-29T06:16:46;23.42;;;4.30;;
31132;SDS011;17779;50.942;4.026;2023-05-29T06:19:12;20.38;;;3.95;;
31132;SDS011;17779;50.942;4.026;2023-05-29T06:21:39;13.23;;;3.13;;
31132;SDS011;17779;50.942;4.026;2023-05-29T06:24:05;19.08;;;3.85;;
31132;SDS011;17779;50.942;4.026;2023-05-29T06:26:31;17.20;;;3.92;;
31132;SDS011;17779;50.942;4.026;2023-05-29T06:28:57;14.07;;;3.03;;
31132;SDS011;17779;50.942;4.026;2023-05-29T06:31:23;17.80;;;3.70;;
31132;SDS011;17779;50.942;4.026;2023-05-29T06:33:49;19.17;;;4.45;;
31132;SDS011;17779;50.942;4.026;2023-05-29T06:36:15;16.60;;;3.30;;
31132;SDS011;17779;50.942;4.026;2023-05-29T06:38:45;33.53;;;4.88;;
31132;SDS011;17779;50.942;4.026;2023-05-29T06:41:15;18.33;;;3.80;;
31132;SDS011;17779;50.942;4.026;2023-05-29T06:43:41;23.02;;;3.83;;
31132;SDS011;17779;50.942;4.026;2023-05-29T06:46:07;13.68;;;3.63;;
31132;SDS011;17779;50.942;4.026;2023-05-29T06:48:36;18.98;;;4.05;;
31132;SDS011;17779;50.942;4.026;2023-05-29T06:51:02;22.35;;;3.80;;
31132;SDS011;17779;50.942;4.026;2023-05-29T06:53:36;14.93;;;3.75;;
31132;SDS011;17779;50.942;4.026;2023-05-29T06:56:03;22.80;;;3.70;;
31132;SDS011;17779;50.942;4.026;2023-05-29T06:58:30;16.25;;;3.33;;
31132;SDS011;17779;50.942;4.026;2023-05-29T07:00:56;16.83;;;3.22;;
31132;SDS011;17779;50.942;4.026;2023-05-29T07:03:22;17.40;;;3.28;;
31132;SDS011;17779;50.942;4.026;2023-05-29T07:05:47;15.48;;;3.65;;
31132;SDS011;17779;50.942;4.026;2023-05-29T07:08:13;15.73;;;3.20;;
31132;SDS011;17779;50.942;4.026;2023-05-29T07:13:05;9.23;;;2.75;;
31132;SDS011;17779;50.942;4.026;2023-05-29T07:15:33;16.95;;;3.75;;
31132;SDS011;17779;50.942;4.026;2023-05-29T07:17:59;11.60;;;2.78;;
31132;SDS011;17779;50.942;4.026;2023-05-29T07:20:25;15.70;;;3.42;;
31132;SDS011;17779;50.942;4.026;2023-05-29T07:22:51;11.15;;;2.80;;
31132;SDS011;17779;50.942;4.026;2023-05-29T07:25:17;11.20;;;3.20;;
31132;SDS011;17779;50.942;4.026;2023-05-29T07:27:43;15.18;;;3.33;;
31132;SDS011;17779;50.942;4.026;2023-05-29T07:30:08;12.63;;;3.38;;
31132;SDS011;17779;50.942;4.026;2023-05-29T07:32:35;13.57;;;3.40;;
31132;SDS011;17779;50.942;4.026;2023-05-29T07:35:01;13.13;;;2.92;;
31132;SDS011;17779;50.942;4.026;2023-05-29T07:37:26;15.23;;;2.90;;
31132;SDS011;17779;50.942;4.026;2023-05-29T07:39:52;13.80;;;3.03;;
31132;SDS011;17779;50.942;4.026;2023-05-29T07:42:18;11.63;;;2.95;;
31132;SDS011;17779;50.942;4.026;2023-05-29T07:44:44;13.77;;;3.25;;
31132;SDS011;17779;50.942;4.026;2023-05-29T07:47:11;14.52;;;3.22;;
31132;SDS011;17779;50.942;4.026;2023-05-29T07:49:37;17.15;;;3.25;;
31132;SDS011;17779;50.942;4.026;2023-05-29T07:52:03;15.55;;;3.45;;
31132;SDS011;17779;50.942;4.026;2023-05-29T07:54:30;12.43;;;3.08;;
31132;SDS011;17779;50.942;4.026;2023-05-29T07:56:58;12.98;;;3.22;;
31132;SDS011;17779;50.942;4.026;2023-05-29T07:59:35;13.73;;;3.08;;
31132;SDS011;17779;50.942;4.026;2023-05-29T08:02:06;11.73;;;3.33;;
31132;SDS011;17779;50.942;4.026;2023-05-29T08:04:32;12.90;;;3.40;;
31132;SDS011;17779;50.942;4.026;2023-05-29T08:07:02;20.83;;;3.65;;
31132;SDS011;17779;50.942;4.026;2023-05-29T08:09:31;11.45;;;2.97;;
31132;SDS011;17779;50.942;4.026;2023-05-29T08:11:57;12.05;;;3.42;;
31132;SDS011;17779;50.942;4.026;2023-05-29T08:14:25;13.52;;;3.00;;
31132;SDS011;17779;50.942;4.026;2023-05-29T08:16:51;15.65;;;3.15;;
31132;SDS011;17779;50.942;4.026;2023-05-29T08:19:16;9.57;;;2.75;;
31132;SDS011;17779;50.942;4.026;2023-05-29T08:21:42;12.48;;;3.28;;
31132;SDS011;17779;50.942;4.026;2023-05-29T08:24:08;9.45;;;2.70;;
31132;SDS011;17779;50.942;4.026;2023-05-29T08:26:34;14.60;;;3.38;;
31132;SDS011;17779;50.942;4.026;2023-05-29T08:29:00;11.63;;;2.90;;
31132;SDS011;17779;50.942;4.026;2023-05-29T08:31:26;12.13;;;3.65;;
31132;SDS011;17779;50.942;4.026;2023-05-29T08:33:53;11.85;;;3.10;;
31132;SDS011;17779;50.942;4.026;2023-05-29T08:36:19;13.38;;;3.13;;
31132;SDS011;17779;50.942;4.026;2023-05-29T08:38:48;13.52;;;3.45;;
31132;SDS011;17779;50.942;4.026;2023-05-29T08:41:19;12.82;;;3.13;;
31132;SDS011;17779;50.942;4.026;2023-05-29T08:43:52;14.43;;;3.15;;
31132;SDS011;17779;50.942;4.026;2023-05-29T08:46:18;11.50;;;3.30;;
31132;SDS011;17779;50.942;4.026;2023-05-29T08:48:50;13.70;;;3.35;;
31132;SDS011;17779;50.942;4.026;2023-05-29T08:51:20;11.38;;;3.15;;
31132;SDS011;17779;50.942;4.026;2023-05-29T08:53:47;10.60;;;3.10;;
31132;SDS011;17779;50.942;4.026;2023-05-29T08:58:38;13.95;;;3.35;;
31132;SDS011;17779;50.942;4.026;2023-05-29T09:01:04;13.30;;;3.60;;
31132;SDS011;17779;50.942;4.026;2023-05-29T09:03:31;13.93;;;2.55;;
31132;SDS011;17779;50.942;4.026;2023-05-29T09:06:00;14.25;;;3.30;;
31132;SDS011;17779;50.942;4.026;2023-05-29T09:08:28;20.17;;;4.18;;
31132;SDS011;17779;50.942;4.026;2023-05-29T09:10:54;15.20;;;3.60;;
31132;SDS011;17779;50.942;4.026;2023-05-29T09:13:22;10.55;;;3.10;;
31132;SDS011;17779;50.942;4.026;2023-05-29T09:15:48;11.30;;;2.70;;
31132;SDS011;17779;50.942;4.026;2023-05-29T09:20:41;13.48;;;3.00;;
31132;SDS011;17779;50.942;4.026;2023-05-29T09:23:08;12.27;;;3.28;;
31132;SDS011;17779;50.942;4.026;2023-05-29T09:25:38;11.70;;;3.13;;
31132;SDS011;17779;50.942;4.026;2023-05-29T09:28:07;9.77;;;3.25;;
31132;SDS011;17779;50.942;4.026;2023-05-29T09:30:40;8.90;;;3.00;;
31132;SDS011;17779;50.942;4.026;2023-05-29T09:33:09;10.80;;;3.50;;
31132;SDS011;17779;50.942;4.026;2023-05-29T09:35:43;11.63;;;2.88;;
31132;SDS011;17779;50.942;4.026;2023-05-29T09:40:41;9.23;;;3.33;;
31132;SDS011;17779;50.942;4.026;2023-05-29T09:43:14;14.27;;;3.35;;
31132;SDS011;17779;50.942;4.026;2023-05-29T09:45:45;15.25;;;3.55;;
31132;SDS011;17779;50.942;4.026;2023-05-29T09:48:15;9.45;;;2.40;;
31132;SDS011;17779;50.942;4.026;2023-05-29T09:50:48;14.75;;;3.42;;
31132;SDS011;17779;50.942;4.026;2023-05-29T09:55:44;13.05;;;3.72;;
31132;SDS011;17779;50.942;4.026;2023-05-29T09:58:20;12.38;;;3.20;;
31132;SDS011;17779;50.942;4.026;2023-05-29T10:00:47;10.40;;;2.88;;
31132;SDS011;17779;50.942;4.026;2023-05-29T10:03:14;15.57;;;3.45;;
31132;SDS011;17779;50.942;4.026;2023-05-29T10:05:41;17.40;;;3.67;;
31132;SDS011;17779;50.942;4.026;2023-05-29T10:08:08;13.63;;;3.35;;
31132;SDS011;17779;50.942;4.026;2023-05-29T10:10:42;15.40;;;3.33;;
31132;SDS011;17779;50.942;4.026;2023-05-29T10:13:11;13.85;;;3.30;;
31132;SDS011;17779;50.942;4.026;2023-05-29T10:15:37;14.80;;;3.83;;
31132;SDS011;17779;50.942;4.026;2023-05-29T10:18:13;14.10;;;3.22;;
31132;SDS011;17779;50.942;4.026;2023-05-29T10:20:46;9.90;;;3.08;;
31132;SDS011;17779;50.942;4.026;2023-05-29T10:23:21;14.05;;;3.17;;
31132;SDS011;17779;50.942;4.026;2023-05-29T10:25:55;11.93;;;3.30;;
31132;SDS011;17779;50.942;4.026;2023-05-29T10:28:26;11.95;;;3.40;;
31132;SDS011;17779;50.942;4.026;2023-05-29T10:30:54;9.80;;;2.92;;
31132;SDS011;17779;50.942;4.026;2023-05-29T10:36:19;11.18;;;3.30;;
31132;SDS011;17779;50.942;4.026;2023-05-29T10:38:49;10.80;;;3.13;;
31132;SDS011;17779;50.942;4.026;2023-05-29T10:43:53;12.15;;;2.78;;
31132;SDS011;17779;50.942;4.026;2023-05-29T10:46:20;12.07;;;3.15;;
31132;SDS011;17779;50.942;4.026;2023-05-29T10:51:24;12.48;;;3.08;;
31132;SDS011;17779;50.942;4.026;2023-05-29T10:53:51;11.13;;;3.28;;
31132;SDS011;17779;50.942;4.026;2023-05-29T10:58:51;14.23;;;3.25;;
31132;SDS011;17779;50.942;4.026;2023-05-29T11:01:22;9.98;;;3.15;;
31132;SDS011;17779;50.942;4.026;2023-05-29T11:03:53;12.13;;;3.10;;
31132;SDS011;17779;50.942;4.026;2023-05-29T11:06:38;14.10;;;3.50;;
31132;SDS011;17779;50.942;4.026;2023-05-29T11:11:33;10.20;;;2.88;;
31132;SDS011;17779;50.942;4.026;2023-05-29T11:14:06;9.52;;;2.80;;
31132;SDS011;17779;50.942;4.026;2023-05-29T11:22:09;9.20;;;3.13;;
31132;SDS011;17779;50.942;4.026;2023-05-29T11:24:22;12.38;;;3.00;;
31132;SDS011;17779;50.942;4.026;2023-05-29T11:26:49;8.65;;;2.65;;
31132;SDS011;17779;50.942;4.026;2023-05-29T11:29:38;12.27;;;3.20;;
31132;SDS011;17779;50.942;4.026;2023-05-29T11:32:05;13.35;;;3.20;;
31132;SDS011;17779;50.942;4.026;2023-05-29T11:34:35;10.00;;;2.97;;
31132;SDS011;17779;50.942;4.026;2023-05-29T11:37:05;11.32;;;4.07;;
31132;SDS011;17779;50.942;4.026;2023-05-29T11:42:00;12.65;;;3.35;;
31132;SDS011;17779;50.942;4.026;2023-05-29T11:44:27;12.05;;;2.83;;
31132;SDS011;17779;50.942;4.026;2023-05-29T11:47:00;14.45;;;3.47;;
31132;SDS011;17779;50.942;4.026;2023-05-29T11:49:28;8.73;;;2.85;;
31132;SDS011;17779;50.942;4.026;2023-05-29T11:52:05;9.82;;;3.08;;
31132;SDS011;17779;50.942;4.026;2023-05-29T11:54:35;10.77;;;3.58;;
31132;SDS011;17779;50.942;4.026;2023-05-29T11:57:02;11.00;;;3.10;;
31132;SDS011;17779;50.942;4.026;2023-05-29T11:59:30;11.75;;;3.47;;
31132;SDS011;17779;50.942;4.026;2023-05-29T12:02:02;10.48;;;3.40;;
31132;SDS011;17779;50.942;4.026;2023-05-29T12:04:28;8.35;;;2.58;;
31132;SDS011;17779;50.942;4.026;2023-05-29T12:06:54;12.52;;;3.00;;
31132;SDS011;17779;50.942;4.026;2023-05-29T12:11:53;14.65;;;3.85;;
31132;SDS011;17779;50.942;4.026;2023-05-29T12:14:28;10.15;;;2.88;;
31132;SDS011;17779;50.942;4.026;2023-05-29T12:19:20;14.60;;;3.75;;
31132;SDS011;17779;50.942;4.026;2023-05-29T12:24:11;11.40;;;2.85;;
31132;SDS011;17779;50.942;4.026;2023-05-29T12:29:04;12.32;;;3.10;;
31132;SDS011;17779;50.942;4.026;2023-05-29T12:31:30;12.48;;;3.13;;
31132;SDS011;17779;50.942;4.026;2023-05-29T12:34:00;15.18;;;3.20;;
31132;SDS011;17779;50.942;4.026;2023-05-29T12:36:27;13.82;;;3.38;;
31132;SDS011;17779;50.942;4.026;2023-05-29T12:41:25;12.68;;;3.97;;
31132;SDS011;17779;50.942;4.026;2023-05-29T12:43:56;11.63;;;3.70;;
31132;SDS011;17779;50.942;4.026;2023-05-29T12:46:25;10.63;;;3.33;;
31132;SDS011;17779;50.942;4.026;2023-05-29T12:48:55;14.10;;;4.07;;
31132;SDS011;17779;50.942;4.026;2023-05-29T12:51:25;14.35;;;3.88;;
31132;SDS011;17779;50.942;4.026;2023-05-29T12:53:51;13.38;;;3.80;;
31132;SDS011;17779;50.942;4.026;2023-05-29T12:56:20;13.93;;;3.47;;
31132;SDS011;17779;50.942;4.026;2023-05-29T12:58:51;16.45;;;3.88;;
31132;SDS011;17779;50.942;4.026;2023-05-29T13:01:17;14.93;;;3.80;;
31132;SDS011;17779;50.942;4.026;2023-05-29T13:03:44;12.98;;;3.20;;
31132;SDS011;17779;50.942;4.026;2023-05-29T13:06:10;11.93;;;3.58;;
31132;SDS011;17779;50.942;4.026;2023-05-29T13:08:37;12.80;;;3.40;;
31132;SDS011;17779;50.942;4.026;2023-05-29T13:11:03;14.23;;;4.30;;
31132;SDS011;17779;50.942;4.026;2023-05-29T13:13:28;12.25;;;4.28;;
31132;SDS011;17779;50.942;4.026;2023-05-29T13:15:54;15.23;;;3.83;;
31132;SDS011;17779;50.942;4.026;2023-05-29T13:18:20;16.83;;;3.72;;
31132;SDS011;17779;50.942;4.026;2023-05-29T13:20:47;13.27;;;3.35;;
31132;SDS011;17779;50.942;4.026;2023-05-29T13:23:13;16.85;;;4.15;;
31132;SDS011;17779;50.942;4.026;2023-05-29T13:25:39;13.98;;;3.28;;
31132;SDS011;17779;50.942;4.026;2023-05-29T13:28:05;13.38;;;3.67;;
31132;SDS011;17779;50.942;4.026;2023-05-29T13:30:31;12.82;;;3.58;;
31132;SDS011;17779;50.942;4.026;2023-05-29T13:32:56;14.52;;;3.70;;
31132;SDS011;17779;50.942;4.026;2023-05-29T13:35:22;18.77;;;6.05;;
31132;SDS011;17779;50.942;4.026;2023-05-29T13:37:48;18.02;;;5.30;;
31132;SDS011;17779;50.942;4.026;2023-05-29T13:40:14;13.07;;;5.43;;
31132;SDS011;17779;50.942;4.026;2023-05-29T13:42:40;22.70;;;7.35;;
31132;SDS011;17779;50.942;4.026;2023-05-29T13:45:06;14.40;;;4.72;;
31132;SDS011;17779;50.942;4.026;2023-05-29T13:47:33;11.93;;;3.83;;
31132;SDS011;17779;50.942;4.026;2023-05-29T13:50:00;14.50;;;3.40;;
31132;SDS011;17779;50.942;4.026;2023-05-29T13:52:26;19.90;;;4.75;;
31132;SDS011;17779;50.942;4.026;2023-05-29T13:54:52;13.75;;;3.20;;
31132;SDS011;17779;50.942;4.026;2023-05-29T13:57:18;15.75;;;3.47;;
31132;SDS011;17779;50.942;4.026;2023-05-29T13:59:45;12.27;;;3.40;;
31132;SDS011;17779;50.942;4.026;2023-05-29T14:02:10;13.13;;;3.47;;
31132;SDS011;17779;50.942;4.026;2023-05-29T14:04:38;12.00;;;3.97;;
31132;SDS011;17779;50.942;4.026;2023-05-29T14:07:04;13.80;;;3.00;;
31132;SDS011;17779;50.942;4.026;2023-05-29T14:09:30;12.50;;;3.70;;
31132;SDS011;17779;50.942;4.026;2023-05-29T14:11:58;12.75;;;3.67;;
31132;SDS011;17779;50.942;4.026;2023-05-29T14:14:26;8.98;;;2.78;;
31132;SDS011;17779;50.942;4.026;2023-05-29T14:16:52;14.05;;;4.07;;
31132;SDS011;17779;50.942;4.026;2023-05-29T14:19:19;15.02;;;4.57;;
31132;SDS011;17779;50.942;4.026;2023-05-29T14:21:47;12.88;;;3.40;;
31132;SDS011;17779;50.942;4.026;2023-05-29T14:24:14;13.98;;;4.38;;
31132;SDS011;17779;50.942;4.026;2023-05-29T14:26:41;18.45;;;4.30;;
31132;SDS011;17779;50.942;4.026;2023-05-29T14:29:10;13.75;;;3.55;;
31132;SDS011;17779;50.942;4.026;2023-05-29T14:31:36;11.23;;;3.10;;
31132;SDS011;17779;50.942;4.026;2023-05-29T14:34:02;13.40;;;3.40;;
31132;SDS011;17779;50.942;4.026;2023-05-29T14:36:28;15.63;;;3.63;;
31132;SDS011;17779;50.942;4.026;2023-05-29T14:38:53;18.17;;;3.38;;
31132;SDS011;17779;50.942;4.026;2023-05-29T14:41:19;16.52;;;3.53;;
31132;SDS011;17779;50.942;4.026;2023-05-29T14:43:45;12.68;;;3.60;;
31132;SDS011;17779;50.942;4.026;2023-05-29T14:46:10;14.60;;;3.45;;
31132;SDS011;17779;50.942;4.026;2023-05-29T14:48:36;13.15;;;3.03;;
31132;SDS011;17779;50.942;4.026;2023-05-29T14:51:03;10.15;;;3.08;;
31132;SDS011;17779;50.942;4.026;2023-05-29T14:53:30;16.70;;;3.38;;
31132;SDS011;17779;50.942;4.026;2023-05-29T14:55:56;9.52;;;3.15;;
31132;SDS011;17779;50.942;4.026;2023-05-29T14:58:22;14.02;;;3.22;;
31132;SDS011;17779;50.942;4.026;2023-05-29T15:00:48;9.02;;;3.13;;
31132;SDS011;17779;50.942;4.026;2023-05-29T15:03:14;10.10;;;3.60;;
31132;SDS011;17779;50.942;4.026;2023-05-29T15:05:40;14.05;;;3.17;;
31132;SDS011;17779;50.942;4.026;2023-05-29T15:08:05;12.15;;;3.50;;
31132;SDS011;17779;50.942;4.026;2023-05-29T15:10:31;13.60;;;3.10;;
31132;SDS011;17779;50.942;4.026;2023-05-29T15:15:24;9.07;;;3.22;;
31132;SDS011;17779;50.942;4.026;2023-05-29T15:17:52;12.02;;;2.92;;
31132;SDS011;17779;50.942;4.026;2023-05-29T15:20:21;9.93;;;2.75;;
31132;SDS011;17779;50.942;4.026;2023-05-29T15:22:47;13.55;;;2.60;;
31132;SDS011;17779;50.942;4.026;2023-05-29T15:25:17;9.63;;;2.90;;
31132;SDS011;17779;50.942;4.026;2023-05-29T15:27:43;11.95;;;2.92;;
31132;SDS011;17779;50.942;4.026;2023-05-29T15:30:10;14.60;;;3.80;;
31132;SDS011;17779;50.942;4.026;2023-05-29T15:32:39;13.50;;;3.50;;
31132;SDS011;17779;50.942;4.026;2023-05-29T15:35:06;11.40;;;3.00;;
31132;SDS011;17779;50.942;4.026;2023-05-29T15:37:33;11.93;;;2.90;;
31132;SDS011;17779;50.942;4.026;2023-05-29T15:40:01;12.88;;;3.10;;
31132;SDS011;17779;50.942;4.026;2023-05-29T15:42:29;11.50;;;2.58;;